Time;durP1;ratioP1;P1;durP2;ratioP2;P2;SDS_P1;SDS_P2;PMS_P1;PMS_P2;Temp;Humidity;BMP_temperature;BMP_pressure;BME280_temperature;BME280_humidity;BME280_pressure;Samples;Min_cycle;Max_cycle;Signal;HPM_P1;HPM_P2
2023/07/04 00:01:47;;;;;;;6.93;3.03;;;;;;;13.97;94.26;101174.34;6110782;19;20018;-69
2023/07/04 00:03:54;;;;;;;8.80;3.00;;;;;;;13.87;92.82;101172.22;6113239;19;20074;-70
2023/07/04 00:05:59;;;;;;;6.22;2.90;;;;;;;13.73;93.65;101183.47;6110055;19;20345;-71
2023/07/04 00:08:05;;;;;;;7.68;3.00;;;;;;;13.56;92.49;101185.13;6113593;19;20023;-72
2023/07/04 00:10:11;;;;;;;7.00;2.97;;;;;;;13.60;93.10;101189.31;6112856;19;20035;-72
2023/07/04 00:12:17;;;;;;;6.65;2.75;;;;;;;13.65;93.65;101189.13;6112598;19;20013;-71
2023/07/04 00:14:24;;;;;;;6.70;2.88;;;;;;;13.60;92.82;101189.31;6112184;19;20029;-70
2023/07/04 00:16:33;;;;;;;10.88;3.38;;;;;;;13.55;92.68;101188.69;6111292;19;20428;-72
2023/07/04 00:18:39;;;;;;;6.38;2.90;;;;;;;13.57;93.85;101194.75;6111900;19;20022;-71
2023/07/04 00:20:44;;;;;;;9.00;2.80;;;;;;;13.52;91.43;101188.84;6111250;19;20025;-71
2023/07/04 00:22:49;;;;;;;5.95;2.50;;;;;;;13.59;91.05;101200.81;6112668;19;20533;-71
2023/07/04 00:24:56;;;;;;;11.07;2.70;;;;;;;13.63;89.99;101192.75;6112061;19;20026;-71
2023/07/04 00:27:02;;;;;;;6.10;2.83;;;;;;;13.61;91.49;101204.25;6109796;19;20023;-70
2023/07/04 00:29:09;;;;;;;8.07;2.92;;;;;;;13.58;91.38;101201.72;6111691;19;20374;-70
2023/07/04 00:31:19;;;;;;;8.73;2.70;;;;;;;13.54;90.43;101204.63;6110507;19;20039;-70
2023/07/04 00:33:27;;;;;;;7.40;2.50;;;;;;;13.55;89.86;101198.41;6107768;19;20021;-69
2023/07/04 00:35:35;;;;;;;3.83;2.25;;;;;;;13.47;91.01;101198.75;6111271;19;20081;-69
2023/07/04 00:37:43;;;;;;;4.70;2.33;;;;;;;13.49;90.41;101190.78;6112746;19;20027;-70
2023/07/04 00:39:48;;;;;;;5.03;2.28;;;;;;;13.51;90.50;101204.75;6112351;19;20090;-70
2023/07/04 00:41:54;;;;;;;3.75;2.20;;;;;;;13.52;89.96;101202.03;6111592;19;20023;-70
2023/07/04 00:44:01;;;;;;;5.10;2.25;;;;;;;13.59;89.38;101203.47;6111245;19;20074;-72
2023/07/04 00:46:07;;;;;;;6.00;2.38;;;;;;;13.53;90.11;101216.09;6111506;19;20022;-72
2023/07/04 00:48:17;;;;;;;9.77;2.53;;;;;;;13.55;90.76;101201.03;6111568;19;20471;-72
2023/07/04 00:50:26;;;;;;;14.52;3.75;;;;;;;13.56;91.96;101198.34;6111495;19;20032;-72
2023/07/04 00:52:36;;;;;;;6.53;2.55;;;;;;;13.54;90.39;101189.63;6111014;19;20077;-71
2023/07/04 00:54:44;;;;;;;5.00;2.97;;;;;;;13.51;92.34;101184.50;6111818;19;20082;-73
2023/07/04 00:56:49;;;;;;;6.43;2.53;;;;;;;13.49;92.58;101185.50;6110645;19;19999;-73
2023/07/04 00:58:56;;;;;;;6.72;2.88;;;;;;;13.50;91.95;101187.19;6110751;19;20499;-71
2023/07/04 01:01:02;;;;;;;6.20;3.15;;;;;;;13.44;91.74;101183.06;6109664;19;20035;-72
2023/07/04 01:03:10;;;;;;;7.68;2.88;;;;;;;13.47;90.85;101187.34;6111003;19;20489;-73
2023/07/04 01:05:23;;;;;;;10.10;2.45;;;;;;;13.41;90.74;101183.22;6111892;19;20403;-72
2023/07/04 01:07:35;;;;;;;5.93;2.60;;;;;;;13.38;91.64;101186.84;6109061;19;20006;-70
2023/07/04 01:09:43;;;;;;;10.00;3.47;;;;;;;13.39;91.17;101182.41;6111444;19;20373;-72
2023/07/04 01:11:50;;;;;;;6.88;2.47;;;;;;;13.35;92.46;101180.88;6110436;19;20010;-72
2023/07/04 01:13:55;;;;;;;5.85;2.67;;;;;;;13.32;91.86;101176.59;6109807;19;20018;-72
2023/07/04 01:16:03;;;;;;;7.28;2.45;;;;;;;13.27;91.95;101172.41;6111601;19;20031;-70
2023/07/04 01:18:08;;;;;;;7.30;2.58;;;;;;;13.29;91.42;101178.50;6108540;19;20014;-70
2023/07/04 01:20:18;;;;;;;6.72;2.65;;;;;;;13.26;92.15;101178.59;6110132;19;20015;-70
2023/07/04 01:22:31;;;;;;;7.25;2.85;;;;;;;13.17;92.71;101178.09;6111454;19;20387;-71
2023/07/04 01:24:46;;;;;;;13.07;3.67;;;;;;;13.21;92.94;101172.69;6110132;19;20055;-70
2023/07/04 01:26:54;;;;;;;8.90;3.45;;;;;;;13.18;92.92;101181.59;6110812;19;20078;-70
2023/07/04 01:29:03;;;;;;;6.82;3.05;;;;;;;13.16;92.85;101173.78;6111019;19;20007;-70
2023/07/04 01:31:08;;;;;;;6.15;2.50;;;;;;;13.17;92.29;101178.09;6113119;19;20056;-71
2023/07/04 01:33:13;;;;;;;8.55;2.60;;;;;;;13.11;93.04;101175.75;6116073;19;20027;-71
2023/07/04 01:35:19;;;;;;;7.60;2.78;;;;;;;13.09;92.98;101182.03;6117855;19;20523;-72
2023/07/04 01:37:24;;;;;;;11.43;2.83;;;;;;;13.08;92.92;101183.78;6114534;19;20375;-71
2023/07/04 01:39:33;;;;;;;10.25;2.65;;;;;;;13.03;93.32;101185.78;6114147;19;20069;-71
2023/07/04 01:41:39;;;;;;;6.78;2.33;;;;;;;13.08;93.56;101190.84;6111730;19;20030;-71
2023/07/04 01:43:51;;;;;;;6.95;2.70;;;;;;;13.10;93.05;101186.38;6116604;19;20934;-72
2023/07/04 01:45:57;;;;;;;8.02;2.53;;;;;;;13.13;92.81;101183.59;6113752;19;20018;-71
2023/07/04 01:48:06;;;;;;;8.40;2.80;;;;;;;13.14;92.97;101191.44;6115532;19;20446;-71
2023/07/04 01:50:15;;;;;;;7.30;2.55;;;;;;;13.15;94.29;101177.31;6112697;19;20018;-72
2023/07/04 01:52:20;;;;;;;7.65;2.45;;;;;;;13.11;92.51;101181.03;6113577;19;20022;-71
2023/07/04 01:54:25;;;;;;;8.10;2.80;;;;;;;13.13;92.99;101184.44;6114738;19;20031;-72
2023/07/04 01:56:32;;;;;;;7.80;2.60;;;;;;;13.12;92.51;101184.53;6115550;19;20039;-72
2023/07/04 01:58:39;;;;;;;7.70;2.95;;;;;;;13.08;93.01;101194.34;6116551;19;20015;-72
2023/07/04 02:00:47;;;;;;;10.48;3.17;;;;;;;13.09;93.21;101185.53;6114201;19;20020;-73
2023/07/04 02:02:52;;;;;;;9.77;2.83;;;;;;;13.13;93.29;101186.22;6115719;19;20023;-73
2023/07/04 02:05:00;;;;;;;11.80;3.03;;;;;;;13.10;94.97;101184.59;6115018;19;20078;-72
2023/07/04 02:07:06;;;;;;;10.90;3.45;;;;;;;13.11;94.13;101172.25;6113589;19;20011;-72
2023/07/04 02:09:12;;;;;;;7.90;3.00;;;;;;;13.11;94.42;101170.47;6115275;19;20027;-72
2023/07/04 02:11:17;;;;;;;11.68;3.38;;;;;;;13.14;94.69;101172.13;6115268;19;20017;-72
2023/07/04 02:13:22;;;;;;;6.22;3.47;;;;;;;13.17;93.71;101179.91;6115451;19;20475;-72
2023/07/04 02:15:28;;;;;;;8.93;2.65;;;;;;;13.17;94.46;101178.09;6109388;19;20097;-70
2023/07/04 02:17:36;;;;;;;12.38;3.53;;;;;;;13.15;94.81;101174.69;6113476;19;20378;-71
2023/07/04 02:19:41;;;;;;;7.13;3.10;;;;;;;13.15;96.32;101177.31;6112860;19;20512;-72
2023/07/04 02:21:50;;;;;;;8.52;2.72;;;;;;;13.17;94.74;101177.25;6113946;19;20058;-70
2023/07/04 02:23:55;;;;;;;10.60;3.45;;;;;;;13.16;94.13;101184.31;6113789;19;20010;-71
2023/07/04 02:26:04;;;;;;;9.43;2.97;;;;;;;13.17;93.75;101175.47;6114497;19;20474;-71
2023/07/04 02:28:10;;;;;;;10.13;3.10;;;;;;;13.21;94.06;101180.59;6110579;19;20007;-71
2023/07/04 02:30:15;;;;;;;9.18;3.10;;;;;;;13.18;93.33;101182.44;6113406;19;20010;-71
2023/07/04 02:32:20;;;;;;;8.18;3.17;;;;;;;13.23;94.20;101189.31;6110174;19;20329;-70
2023/07/04 02:34:29;;;;;;;10.95;3.60;;;;;;;13.20;93.07;101190.31;6110952;19;20014;-71
2023/07/04 02:36:36;;;;;;;9.68;2.70;;;;;;;13.18;93.62;101185.09;6113074;19;20014;-70
2023/07/04 02:38:42;;;;;;;10.23;2.78;;;;;;;13.16;94.40;101194.00;6112269;19;20019;-70
2023/07/04 02:40:48;;;;;;;8.68;3.20;;;;;;;13.10;94.76;101197.78;6112097;19;20038;-69
2023/07/04 02:42:54;;;;;;;6.90;2.60;;;;;;;13.16;92.30;101186.09;6113012;19;20081;-70
2023/07/04 02:44:59;;;;;;;11.10;3.38;;;;;;;13.10;92.52;101184.59;6113700;19;20110;-70
2023/07/04 02:47:04;;;;;;;5.63;2.38;;;;;;;13.05;92.31;101181.28;6113254;19;20018;-70
2023/07/04 02:49:11;;;;;;;7.13;2.83;;;;;;;13.08;92.11;101190.84;6113148;19;20039;-70
2023/07/04 02:51:18;;;;;;;9.25;2.90;;;;;;;13.06;91.76;101193.56;6113567;19;20015;-71
2023/07/04 02:53:23;;;;;;;9.50;2.70;;;;;;;13.07;91.43;101190.00;6110786;19;20018;-69
2023/07/04 02:55:32;;;;;;;9.50;2.83;;;;;;;13.07;90.12;101190.00;6090820;19;20011;-70
2023/07/04 02:57:40;;;;;;;8.38;2.78;;;;;;;13.10;88.85;101189.00;6110881;19;20406;-70
2023/07/04 02:59:46;;;;;;;7.85;2.70;;;;;;;13.05;89.71;101186.56;6112295;19;20018;-72
2023/07/04 03:01:52;;;;;;;11.60;3.05;;;;;;;13.01;88.96;101185.00;6112221;19;20013;-69
2023/07/04 03:03:58;;;;;;;8.30;2.80;;;;;;;13.04;87.24;101192.78;6111193;19;20025;-70
2023/07/04 03:06:04;;;;;;;7.70;2.58;;;;;;;12.99;87.76;101192.13;6110683;19;20093;-70
2023/07/04 03:08:13;;;;;;;7.53;2.83;;;;;;;12.89;88.26;101191.69;6112190;19;20015;-70
2023/07/04 03:10:18;;;;;;;9.60;2.42;;;;;;;12.90;86.56;101189.88;6110557;19;20018;-70
2023/07/04 03:12:23;;;;;;;8.30;2.47;;;;;;;12.89;86.34;101185.56;6110224;19;20022;-71
2023/07/04 03:14:29;;;;;;;5.68;2.28;;;;;;;12.79;87.47;101185.09;6108485;19;20007;-71
2023/07/04 03:16:34;;;;;;;10.25;2.25;;;;;;;12.78;87.60;101182.53;6110115;19;20118;-71
2023/07/04 03:18:40;;;;;;;8.68;2.60;;;;;;;12.78;87.33;101182.53;6110751;19;20088;-70
2023/07/04 03:20:46;;;;;;;4.65;2.65;;;;;;;12.73;86.71;101186.22;6112711;19;20010;-71
2023/07/04 03:22:51;;;;;;;6.75;3.72;;;;;;;12.70;87.07;101181.09;5965958;19;2845453;-71
2023/07/04 03:24:59;;;;;;;11.02;3.70;;;;;;;12.72;86.40;101184.53;6114006;19;20025;-72
2023/07/04 03:27:04;;;;;;;13.60;3.72;;;;;;;12.72;86.32;101188.94;6109304;19;20094;-71
2023/07/04 03:29:10;;;;;;;8.10;2.90;;;;;;;12.70;84.91;101185.50;6113770;19;20002;-70
2023/07/04 03:31:15;;;;;;;10.35;2.60;;;;;;;12.64;86.09;101189.28;6114326;19;20538;-72
2023/07/04 03:33:21;;;;;;;11.38;3.28;;;;;;;12.67;85.86;101189.16;6113234;19;20021;-71
2023/07/04 03:35:30;;;;;;;8.80;3.50;;;;;;;12.70;85.94;101190.78;6108717;19;20076;-71
2023/07/04 03:37:47;;;;;;;10.18;2.90;;;;;;;12.74;85.63;101198.50;6111843;19;20019;-71
2023/07/04 03:39:52;;;;;;;14.13;3.33;;;;;;;12.73;85.42;101195.94;6112905;19;20505;-70
2023/07/04 03:42:03;;;;;;;8.43;3.50;;;;;;;12.73;86.41;101193.28;6111695;19;20010;-70
2023/07/04 03:44:08;;;;;;;11.32;3.38;;;;;;;12.74;86.54;101192.34;6111399;19;20517;-71
2023/07/04 03:46:13;;;;;;;9.32;3.42;;;;;;;12.70;85.40;101196.91;6113883;19;20010;-70
2023/07/04 03:48:18;;;;;;;16.00;3.90;;;;;;;12.67;88.95;101193.56;6112078;19;20086;-71
2023/07/04 03:50:23;;;;;;;10.63;3.40;;;;;;;12.65;87.13;101184.84;6112383;19;20019;-70
2023/07/04 03:52:28;;;;;;;9.80;3.10;;;;;;;12.63;87.14;101187.53;6110231;19;20089;-72
2023/07/04 03:54:33;;;;;;;7.97;2.70;;;;;;;12.62;87.98;101191.13;6113273;19;20002;-71
2023/07/04 03:56:39;;;;;;;8.95;2.58;;;;;;;12.61;87.95;101196.44;6113163;19;20046;-70
2023/07/04 03:58:47;;;;;;;7.20;2.90;;;;;;;12.63;87.85;101190.19;6112837;19;20062;-71
2023/07/04 04:00:53;;;;;;;10.07;2.80;;;;;;;12.64;89.77;101197.19;6113045;19;20022;-70
2023/07/04 04:02:59;;;;;;;14.60;3.42;;;;;;;12.61;88.20;101191.16;6112888;19;20435;-70
2023/07/04 04:05:05;;;;;;;11.43;2.78;;;;;;;12.61;88.51;101191.16;6111524;19;20024;-69
2023/07/04 04:07:12;;;;;;;9.98;2.83;;;;;;;12.64;90.60;101201.63;6112818;19;20341;-70
2023/07/04 04:09:17;;;;;;;9.00;3.17;;;;;;;12.66;89.46;101192.69;6111416;19;20069;-70
2023/07/04 04:11:22;;;;;;;11.40;3.40;;;;;;;12.68;90.21;101193.47;6111132;19;20050;-69
2023/07/04 04:13:29;;;;;;;9.13;2.90;;;;;;;12.68;90.70;101198.75;6111364;19;20501;-70
2023/07/04 04:15:37;;;;;;;6.53;2.78;;;;;;;12.66;89.66;101195.31;6110136;19;20062;-71
2023/07/04 04:17:43;;;;;;;16.77;3.65;;;;;;;12.72;90.10;101202.13;6111189;19;20248;-71
2023/07/04 04:19:48;;;;;;;9.73;2.95;;;;;;;12.72;90.02;101205.63;6112291;19;20112;-71
2023/07/04 04:21:54;;;;;;;10.63;2.40;;;;;;;12.76;90.29;101200.22;6113638;19;20013;-69
2023/07/04 04:24:00;;;;;;;7.80;3.20;;;;;;;12.78;89.66;101201.00;6106992;19;20043;-72
2023/07/04 04:26:07;;;;;;;10.82;3.08;;;;;;;12.81;90.01;101200.88;6113074;19;20007;-70
2023/07/04 04:28:12;;;;;;;11.23;2.55;;;;;;;12.82;91.19;101199.94;6112649;19;20068;-70
2023/07/04 04:30:17;;;;;;;9.90;2.83;;;;;;;12.84;89.83;101198.09;6112530;19;20011;-70
2023/07/04 04:32:25;;;;;;;10.23;2.92;;;;;;;12.89;91.34;101193.47;6113955;19;20006;-70
2023/07/04 04:34:31;;;;;;;9.38;3.35;;;;;;;12.93;90.85;101201.19;6112797;19;20016;-69
2023/07/04 04:36:37;;;;;;;9.25;3.03;;;;;;;13.00;93.13;101211.44;6111417;19;20050;-70
2023/07/04 04:38:42;;;;;;;11.00;3.13;;;;;;;13.00;90.58;101207.03;6111425;19;20019;-69
2023/07/04 04:40:47;;;;;;;10.10;3.47;;;;;;;13.04;89.83;101210.41;6113285;19;20073;-70
2023/07/04 04:42:55;;;;;;;9.35;2.85;;;;;;;13.07;91.38;101208.47;6111384;19;20019;-70
2023/07/04 04:45:02;;;;;;;7.78;3.08;;;;;;;13.11;90.15;101210.06;6111913;19;20015;-70
2023/07/04 04:47:10;;;;;;;8.88;2.97;;;;;;;13.15;91.32;101208.97;6110792;19;20034;-70
2023/07/04 04:49:18;;;;;;;7.18;2.50;;;;;;;13.17;90.51;101207.13;6111923;19;20013;-69
2023/07/04 04:51:23;;;;;;;8.95;2.80;;;;;;;13.23;91.90;101206.00;6111302;19;20015;-68
2023/07/04 04:53:29;;;;;;;11.25;3.85;;;;;;;13.27;91.13;101207.63;6110837;19;20113;-72
2023/07/04 04:55:35;;;;;;;8.80;2.90;;;;;;;13.33;89.38;101212.59;6111732;19;20481;-69
2023/07/04 04:57:41;;;;;;;7.97;2.83;;;;;;;13.40;90.60;101213.16;6113574;19;20427;-70
2023/07/04 04:59:47;;;;;;;8.10;2.72;;;;;;;13.49;89.56;101207.47;6112517;19;20377;-71
2023/07/04 05:01:52;;;;;;;9.57;2.80;;;;;;;13.55;89.29;101204.53;6111864;19;20062;-71
2023/07/04 05:03:58;;;;;;;7.13;3.08;;;;;;;13.67;88.22;101204.91;6109770;19;20003;-69
2023/07/04 05:06:06;;;;;;;11.48;2.72;;;;;;;13.97;87.61;101203.41;6110619;19;20010;-69
2023/07/04 05:08:11;;;;;;;11.15;2.97;;;;;;;14.28;86.44;101201.88;6112288;19;20148;-73
2023/07/04 05:10:17;;;;;;;7.22;2.80;;;;;;;14.38;84.79;101207.59;6111085;19;20014;-70
2023/07/04 05:12:22;;;;;;;8.70;3.08;;;;;;;14.47;85.19;101205.31;6111583;19;20342;-70
2023/07/04 05:14:30;;;;;;;9.75;3.20;;;;;;;14.56;84.02;101208.44;6111159;19;20027;-69
2023/07/04 05:16:34;;;;;;;10.93;2.78;;;;;;;14.66;84.08;101217.63;6110897;19;20013;-70
2023/07/04 05:18:42;;;;;;;8.23;3.40;;;;;;;14.55;84.20;101217.31;6111233;19;20483;-70
2023/07/04 05:20:47;;;;;;;7.88;2.63;;;;;;;14.49;83.79;101216.66;6111961;19;20015;-70
2023/07/04 05:22:56;;;;;;;7.22;2.50;;;;;;;14.55;84.41;101212.03;6106444;19;20010;-70
2023/07/04 05:25:04;;;;;;;15.00;3.88;;;;;;;14.58;84.41;101215.38;6111378;19;20085;-70
2023/07/04 05:27:10;;;;;;;11.63;2.70;;;;;;;14.64;84.31;101214.19;6111768;19;20074;-70
2023/07/04 05:29:16;;;;;;;8.18;2.72;;;;;;;14.71;84.52;101216.44;6110385;19;20035;-70
2023/07/04 05:31:24;;;;;;;12.80;3.08;;;;;;;14.82;83.79;101218.53;6109561;19;20018;-70
2023/07/04 05:33:30;;;;;;;9.98;2.85;;;;;;;14.86;83.66;101214.78;6104288;19;20060;-70
2023/07/04 05:35:35;;;;;;;8.63;2.60;;;;;;;15.19;81.67;101213.06;6110884;19;20031;-70
2023/07/04 05:37:40;;;;;;;9.30;3.33;;;;;;;15.66;81.08;101215.78;6112179;19;20360;-70
2023/07/04 05:39:52;;;;;;;10.50;2.80;;;;;;;16.08;80.34;101230.22;6109283;19;20010;-71
2023/07/04 05:41:58;;;;;;;17.13;3.72;;;;;;;16.40;79.75;101220.41;6110881;19;19999;-70
2023/07/04 05:44:08;;;;;;;8.88;3.17;;;;;;;16.16;79.76;101222.69;6110727;19;20024;-70
2023/07/04 05:46:14;;;;;;;13.48;3.60;;;;;;;16.05;80.10;101219.78;6111196;19;20090;-70
2023/07/04 05:48:19;;;;;;;7.95;2.83;;;;;;;16.05;80.02;101227.75;6110462;19;20019;-71
2023/07/04 05:50:25;;;;;;;10.43;4.13;;;;;;;16.03;81.02;101232.28;6111857;19;20015;-71
2023/07/04 05:52:31;;;;;;;7.60;3.08;;;;;;;16.04;79.46;101230.50;6108414;19;20132;-71
2023/07/04 05:54:37;;;;;;;10.65;3.10;;;;;;;16.15;80.97;101236.88;6109622;19;20003;-71
2023/07/04 05:56:44;;;;;;;12.45;3.10;;;;;;;16.04;77.88;101235.81;6110238;19;19999;-70
2023/07/04 05:58:52;;;;;;;13.85;3.25;;;;;;;15.86;77.47;101237.69;6110368;19;20038;-71
2023/07/04 06:00:59;;;;;;;12.40;2.92;;;;;;;15.74;79.19;101239.22;6110067;19;20063;-71
2023/07/04 06:03:04;;;;;;;8.55;2.70;;;;;;;15.83;76.80;101237.88;6108660;19;20065;-71
2023/07/04 06:05:10;;;;;;;10.40;3.50;;;;;;;15.84;77.92;101228.97;6109273;19;20022;-71
2023/07/04 06:07:15;;;;;;;13.85;2.85;;;;;;;15.86;76.09;101237.69;6108620;19;20485;-70
2023/07/04 06:09:22;;;;;;;8.18;3.15;;;;;;;15.82;77.42;101233.50;6109789;19;20006;-71
2023/07/04 06:11:29;;;;;;;8.13;2.80;;;;;;;15.91;77.66;101239.16;6099099;19;20043;-71
2023/07/04 06:13:37;;;;;;;13.85;3.53;;;;;;;15.95;77.79;101237.16;6106320;19;20483;-70
2023/07/04 06:15:43;;;;;;;7.03;3.13;;;;;;;15.98;77.85;101239.63;6111851;19;20046;-71
2023/07/04 06:17:49;;;;;;;8.02;3.38;;;;;;;16.07;77.31;101241.78;6115485;19;20475;-71
2023/07/04 06:19:54;;;;;;;12.18;2.90;;;;;;;16.13;77.25;101246.72;6111021;19;20015;-71
2023/07/04 06:22:02;;;;;;;9.93;3.20;;;;;;;16.21;77.19;101244.47;6114770;19;20006;-71
2023/07/04 06:24:07;;;;;;;8.93;2.60;;;;;;;16.26;77.89;101254.84;6114588;19;20479;-71
2023/07/04 06:26:14;;;;;;;8.13;3.28;;;;;;;16.32;77.03;101256.28;6115960;19;20018;-72
2023/07/04 06:28:20;;;;;;;12.45;2.90;;;;;;;16.13;76.76;101265.28;6112578;19;20018;-72
2023/07/04 06:30:30;;;;;;;7.63;3.30;;;;;;;16.09;76.77;101258.47;6115435;19;20026;-71
2023/07/04 06:32:35;;;;;;;7.93;2.40;;;;;;;16.03;76.91;101261.44;6114120;19;20015;-72
2023/07/04 06:34:40;;;;;;;15.38;2.83;;;;;;;15.94;76.84;101268.13;6115033;19;20460;-72
2023/07/04 06:36:50;;;;;;;8.05;2.42;;;;;;;15.93;78.05;101266.44;6111547;19;20412;-72
2023/07/04 06:38:55;;;;;;;7.95;2.70;;;;;;;15.85;77.37;101273.97;6113681;19;20078;-71
2023/07/04 06:41:04;;;;;;;13.63;3.47;;;;;;;15.85;77.68;101273.06;6113239;19;20384;-73
2023/07/04 06:43:10;;;;;;;10.05;2.90;;;;;;;15.82;77.92;101273.25;6113364;19;20074;-73
2023/07/04 06:45:16;;;;;;;8.25;2.50;;;;;;;15.83;78.29;101272.34;6111971;19;20499;-74
2023/07/04 06:47:23;;;;;;;9.95;2.88;;;;;;;15.88;77.73;101276.44;6114122;19;20043;-73
2023/07/04 06:49:33;;;;;;;;;;;;;;;15.80;76.72;101270.69;6111975;19;20011;-71
2023/07/04 06:51:39;;;;;;;7.97;2.67;;;;;;;15.87;78.05;101276.50;6115732;19;20320;-72
2023/07/04 06:53:45;;;;;;;12.63;3.33;;;;;;;15.79;77.63;101275.13;6111971;19;20035;-70
2023/07/04 06:55:50;;;;;;;16.55;3.08;;;;;;;15.78;77.45;101273.41;6112214;19;20045;-72
2023/07/04 06:57:56;;;;;;;13.60;3.30;;;;;;;15.89;76.50;101279.94;6114609;19;20475;-71
2023/07/04 07:00:03;;;;;;;11.38;3.60;;;;;;;16.01;76.81;101285.41;6113130;19;20462;-72
2023/07/04 07:02:09;;;;;;;8.15;2.65;;;;;;;16.44;75.16;101279.44;6114044;19;20070;-72
2023/07/04 07:04:17;;;;;;;7.05;2.60;;;;;;;17.29;73.53;101275.28;6109814;19;20014;-70
2023/07/04 07:06:22;;;;;;;11.82;2.78;;;;;;;17.34;71.97;101276.69;6112865;19;20039;-73
2023/07/04 07:08:30;;;;;;;14.25;3.05;;;;;;;17.28;72.05;101279.72;6112688;19;20124;-70
2023/07/04 07:10:36;;;;;;;9.30;2.70;;;;;;;16.91;72.80;101278.47;6113817;19;20007;-71
2023/07/04 07:12:41;;;;;;;15.43;2.85;;;;;;;17.56;71.27;101278.00;6113081;19;20015;-72
2023/07/04 07:14:49;;;;;;;14.75;3.00;;;;;;;18.20;68.93;101275.72;6111723;19;20023;-73
2023/07/04 07:17:00;;;;;;;8.45;2.47;;;;;;;18.24;67.67;101279.88;6114808;19;20017;-73
2023/07/04 07:19:10;;;;;;;10.25;3.75;;;;;;;18.48;65.34;101287.19;6107651;19;20027;-74
2023/07/04 07:21:24;;;;;;;8.02;2.65;;;;;;;18.54;66.09;101290.31;6112182;19;20017;-72
2023/07/04 07:23:30;;;;;;;12.18;3.38;;;;;;;18.40;65.42;101291.22;6112659;19;20093;-71
2023/07/04 07:25:35;;;;;;;11.63;2.60;;;;;;;19.21;61.34;101297.34;6112712;19;20018;-73
2023/07/04 07:27:40;;;;;;;9.88;2.25;;;;;;;19.28;60.52;101291.47;6110734;19;20050;-72
2023/07/04 07:29:49;;;;;;;16.10;2.97;;;;;;;18.71;59.79;101289.16;6111250;19;20019;-74
2023/07/04 07:31:54;;;;;;;9.95;2.65;;;;;;;18.40;62.23;101298.34;6112984;19;20022;-71
2023/07/04 07:34:03;;;;;;;11.10;2.33;;;;;;;18.29;62.39;101293.72;6111441;19;20030;-72
2023/07/04 07:36:13;;;;;;;12.23;3.08;;;;;;;17.80;64.35;101288.94;6109839;19;20074;-72
2023/07/04 07:38:20;;;;;;;8.02;2.42;;;;;;;17.81;63.27;101298.63;6113415;19;20006;-71
2023/07/04 07:40:26;;;;;;;9.18;2.42;;;;;;;17.98;63.24;101302.84;6113078;19;20604;-73
2023/07/04 07:42:33;;;;;;;5.50;2.20;;;;;;;18.15;63.96;101296.44;6112470;19;20451;-73
2023/07/04 07:44:38;;;;;;;9.93;2.35;;;;;;;18.14;64.32;101305.38;6111639;19;19998;-73
2023/07/04 07:46:47;;;;;;;10.65;3.05;;;;;;;18.16;64.41;101304.31;6112643;19;20405;-73
2023/07/04 07:48:53;;;;;;;11.38;2.53;;;;;;;17.92;64.96;101301.44;6111987;19;20070;-74
2023/07/04 07:51:00;;;;;;;7.78;2.80;;;;;;;17.92;63.24;101288.13;6112164;19;20484;-73
2023/07/04 07:53:06;;;;;;;8.75;2.83;;;;;;;17.84;62.42;101293.09;6110885;19;20019;-73
2023/07/04 07:55:14;;;;;;;11.07;3.08;;;;;;;17.79;63.71;101311.13;6111809;19;20022;-73
2023/07/04 07:57:19;;;;;;;7.40;2.63;;;;;;;18.06;62.50;101305.00;6111751;19;20368;-71
2023/07/04 07:59:27;;;;;;;6.82;2.50;;;;;;;17.85;63.43;101304.56;6109557;19;20019;-73
2023/07/04 08:01:33;;;;;;;13.95;3.78;;;;;;;18.13;63.29;101301.00;6111056;19;20098;-74
2023/07/04 08:03:40;;;;;;;21.38;2.60;;;;;;;18.41;62.02;101308.91;6110552;19;20014;-72
2023/07/04 08:05:46;;;;;;;13.38;2.58;;;;;;;18.70;60.14;101307.91;6110049;19;20377;-74
2023/07/04 08:07:51;;;;;;;6.20;1.83;;;;;;;18.77;61.54;101318.09;6109911;19;20085;-73
2023/07/04 08:09:56;;;;;;;11.32;2.80;;;;;;;18.19;61.92;101306.81;6111084;19;20335;-72
2023/07/04 08:12:04;;;;;;;10.60;2.92;;;;;;;18.27;62.72;101314.25;6110439;19;20022;-73
2023/07/04 08:14:11;;;;;;;9.15;3.25;;;;;;;18.15;61.57;101310.59;6110225;19;20019;-72
2023/07/04 08:16:22;;;;;;;9.38;2.40;;;;;;;18.33;61.57;101308.56;6111227;19;20007;-71
2023/07/04 08:18:29;;;;;;;9.68;2.80;;;;;;;18.41;62.03;101311.56;6110909;19;20035;-73
2023/07/04 08:20:35;;;;;;;9.98;2.97;;;;;;;18.36;60.38;101316.31;6111158;19;20039;-73
2023/07/04 08:22:42;;;;;;;11.68;3.08;;;;;;;18.40;60.23;101327.59;6111949;19;20015;-72
2023/07/04 08:24:48;;;;;;;5.80;2.17;;;;;;;18.58;58.73;101322.88;6103204;19;20347;-72
2023/07/04 08:26:57;;;;;;;11.73;2.78;;;;;;;19.29;59.46;101321.63;6111637;19;20014;-73
2023/07/04 08:29:09;;;;;;;9.90;2.92;;;;;;;19.34;60.46;101319.50;6110811;19;20481;-71
2023/07/04 08:31:17;;;;;;;7.78;2.65;;;;;;;19.56;59.51;101318.84;6109849;19;20049;-72
2023/07/04 08:33:23;;;;;;;7.10;2.15;;;;;;;19.45;59.06;101318.75;6109027;19;20369;-73
2023/07/04 08:35:29;;;;;;;10.65;2.72;;;;;;;20.00;57.30;101317.50;6110460;19;20050;-73
2023/07/04 08:37:35;;;;;;;7.95;2.75;;;;;;;20.09;57.05;101318.66;6110583;19;20111;-72
2023/07/04 08:39:45;;;;;;;7.85;2.45;;;;;;;19.66;56.38;101325.25;6111220;19;20023;-71
2023/07/04 08:41:57;;;;;;;13.05;3.10;;;;;;;19.76;57.00;101324.63;6110703;19;20007;-72
2023/07/04 08:44:14;;;;;;;7.07;2.20;;;;;;;19.81;56.23;101319.81;6110839;19;20010;-73
2023/07/04 08:46:21;;;;;;;10.13;3.08;;;;;;;19.81;57.15;101327.81;6111528;19;20460;-72
2023/07/04 08:48:29;;;;;;;10.05;2.60;;;;;;;19.74;58.45;101325.56;6108523;19;20014;-72
2023/07/04 08:50:40;;;;;;;8.63;2.70;;;;;;;19.58;56.97;101332.06;6110393;19;20039;-72
2023/07/04 08:52:53;;;;;;;10.18;2.60;;;;;;;19.74;55.76;101335.38;6110060;19;20014;-72
2023/07/04 08:55:00;;;;;;;;;;;;;;;20.43;55.53;101322.34;6111253;19;20007;-71
2023/07/04 08:57:19;;;;;;;8.93;2.67;;;;;;;20.51;54.31;101329.78;6111012;19;19922;-72
2023/07/04 08:59:40;;;;;;;9.63;2.85;;;;;;;20.53;51.60;101330.53;6102926;19;20011;-71
2023/07/04 09:02:00;;;;;;;7.38;2.45;;;;;;;20.75;51.80;101324.50;6110893;19;20014;-72
2023/07/04 09:04:10;;;;;;;10.93;2.70;;;;;;;20.73;51.17;101339.78;6111806;19;20014;-72
2023/07/04 09:06:37;;;;;;;12.65;3.25;;;;;;;20.49;50.15;101345.09;6109702;19;20015;-73
2023/07/04 09:08:59;;;;;;;11.13;2.42;;;;;;;20.38;51.28;101340.56;6109935;19;20363;-74
2023/07/04 09:11:08;;;;;;;11.23;2.25;;;;;;;20.37;49.47;101336.16;6110390;19;20030;-74
2023/07/04 09:13:17;;;;;;;6.75;2.00;;;;;;;20.10;49.99;101347.91;6110052;19;20002;-74
2023/07/04 09:15:32;;;;;;;9.63;2.35;;;;;;;20.74;51.07;101344.13;6109271;19;20044;-75
2023/07/04 09:17:43;;;;;;;10.25;2.58;;;;;;;20.85;49.97;101346.00;6106535;19;20015;-75
2023/07/04 09:19:49;;;;;;;7.97;2.10;;;;;;;20.71;50.88;101355.06;6110191;19;20377;-73
2023/07/04 09:21:54;;;;;;;11.88;2.28;;;;;;;20.44;50.29;101347.25;6109629;19;20014;-74
2023/07/04 09:24:04;;;;;;;6.40;2.28;;;;;;;20.37;50.60;101353.03;6111899;19;20345;-72
2023/07/04 09:26:13;;;;;;;7.43;2.08;;;;;;;20.52;51.20;101355.53;6108587;19;20006;-72
2023/07/04 09:28:18;;;;;;;9.65;2.90;;;;;;;20.93;51.25;101347.13;6110825;19;20015;-72
2023/07/04 09:30:26;;;;;;;9.75;2.55;;;;;;;20.74;50.10;101354.81;6109313;19;20018;-74
2023/07/04 09:32:33;;;;;;;10.13;2.53;;;;;;;20.36;51.29;101351.34;6110227;19;20039;-74
2023/07/04 09:34:46;;;;;;;12.73;2.40;;;;;;;20.05;50.15;101362.53;6110742;19;20023;-72
2023/07/04 09:36:54;;;;;;;11.73;2.40;;;;;;;19.73;50.83;101360.38;6111023;19;20467;-74
2023/07/04 09:39:04;;;;;;;8.73;2.35;;;;;;;19.46;51.36;101363.13;6109460;19;20256;-74
2023/07/04 09:41:15;;;;;;;7.63;2.47;;;;;;;19.76;50.66;101362.81;6108255;19;20527;-74
2023/07/04 09:43:37;;;;;;;10.70;3.03;;;;;;;20.47;49.23;101360.38;6110384;19;20014;-74
2023/07/04 09:45:49;;;;;;;9.65;2.22;;;;;;;20.46;48.97;101362.19;6108337;19;20006;-73
2023/07/04 09:47:54;;;;;;;6.22;2.17;;;;;;;20.47;49.86;101365.72;6109094;19;20011;-73
2023/07/04 09:50:27;;;;;;;5.57;1.88;;;;;;;20.70;49.43;101370.22;6109928;19;20023;-73